createdAt,value
2018-09-15T00:00:29.808Z,13.25
2018-09-15T00:02:58.407Z,15.30
2018-09-15T00:05:26.980Z,16.10
2018-09-15T00:07:55.549Z,18.45
2018-09-15T00:10:24.097Z,18.25
2018-09-15T00:12:52.697Z,18.12
2018-09-15T00:15:21.306Z,23.38
2018-09-15T00:17:50.172Z,17.37
2018-09-15T00:20:18.628Z,22.05
2018-09-15T00:22:47.037Z,20.30
2018-09-15T00:25:15.429Z,17.20
2018-09-15T00:27:43.851Z,13.35
2018-09-15T00:30:14.242Z,14.10
2018-09-15T00:32:43.553Z,13.75
2018-09-15T00:35:12.869Z,14.60
2018-09-15T00:37:41.317Z,15.43
2018-09-15T00:40:09.733Z,18.57
2018-09-15T00:42:38.284Z,20.72
2018-09-15T00:45:06.748Z,20.02
2018-09-15T00:47:35.126Z,22.50
2018-09-15T00:50:03.566Z,24.63
2018-09-15T00:52:31.959Z,15.05
2018-09-15T00:55:00.400Z,17.95
2018-09-15T00:57:28.783Z,18.42
2018-09-15T00:59:57.162Z,17.60
2018-09-15T01:02:25.611Z,16.05
2018-09-15T01:04:53.999Z,16.12
2018-09-15T01:07:22.363Z,19.67
2018-09-15T01:09:50.797Z,16.90
2018-09-15T01:12:19.461Z,17.20
2018-09-15T01:14:47.857Z,17.07
2018-09-15T10:38:56.387Z,3.17
2018-09-15T10:41:24.839Z,3.75
2018-09-15T10:43:53.893Z,4.97
2018-09-15T10:46:22.395Z,4.20
2018-09-15T10:48:51.407Z,4.80
2018-09-15T10:51:19.856Z,4.83
2018-09-15T10:53:48.389Z,3.10
2018-09-15T10:56:16.855Z,3.33
2018-09-15T10:58:45.293Z,4.62
2018-09-15T11:01:13.816Z,2.20
2018-09-15T11:03:42.329Z,2.60
2018-09-15T11:06:10.741Z,1.67
2018-09-15T11:08:39.149Z,3.25
2018-09-15T11:11:07.650Z,2.92
2018-09-15T11:13:36.475Z,2.17
2018-09-15T11:16:04.847Z,3.15
2018-09-15T11:18:33.231Z,3.08
2018-09-15T11:21:01.608Z,2.33
2018-09-15T11:23:29.983Z,3.62
2018-09-15T11:25:58.543Z,4.75
2018-09-15T11:28:27.013Z,2.65
2018-09-15T11:30:55.616Z,2.45
2018-09-15T11:33:24.065Z,3.95
2018-09-15T11:35:52.444Z,10.63
2018-09-15T11:38:20.906Z,8.68
2018-09-15T11:40:49.709Z,6.22
2018-09-15T11:43:18.128Z,8.55
2018-09-15T11:45:46.843Z,7.25
2018-09-15T11:48:15.240Z,3.70
2018-09-15T11:50:43.815Z,3.00
2018-09-15T11:53:12.717Z,5.00
2018-09-15T11:55:41.119Z,6.62
2018-09-15T11:58:09.532Z,10.35
2018-09-15T12:03:09.645Z,5.17
2018-09-15T12:05:38.080Z,6.45
2018-09-15T12:08:06.509Z,2.83
2018-09-15T12:10:35.728Z,4.37
2018-09-15T12:13:04.254Z,3.70
2018-09-15T12:15:33.155Z,8.75
2018-09-15T12:18:01.544Z,4.70
2018-09-15T12:20:34.783Z,5.15
2018-09-15T12:23:03.304Z,5.92
2018-09-15T12:25:31.794Z,5.15
2018-09-15T12:28:00.271Z,3.15
2018-09-15T12:30:28.573Z,3.92
2018-09-15T12:32:57.514Z,2.92
2018-09-15T12:35:26.368Z,5.60
2018-09-15T12:37:54.736Z,4.03
2018-09-15T12:40:23.275Z,9.75
2018-09-15T12:42:52.077Z,10.25
2018-09-15T12:45:20.862Z,2.95
2018-09-15T12:47:49.334Z,5.47
2018-09-15T12:50:17.715Z,5.10
2018-09-15T12:52:46.119Z,3.85
2018-09-15T12:55:14.476Z,3.00
2018-09-15T12:57:42.971Z,3.52
2018-09-15T13:00:11.354Z,7.67
2018-09-15T13:02:39.742Z,4.15
2018-09-15T13:05:08.129Z,5.55
2018-09-15T13:07:36.462Z,2.22
2018-09-15T13:10:04.894Z,3.33
2018-09-15T13:12:33.286Z,6.15
2018-09-15T13:15:01.890Z,5.75
2018-09-15T13:17:30.311Z,2.12
2018-09-15T13:19:58.698Z,5.75
2018-09-15T13:22:27.062Z,2.83
2018-09-15T13:24:55.446Z,4.00
2018-09-15T13:27:23.849Z,3.22
2018-09-15T13:29:52.377Z,7.10
2018-09-15T13:32:20.601Z,3.27
2018-09-15T13:34:48.975Z,6.53
2018-09-15T13:37:17.329Z,2.67
2018-09-15T13:39:45.650Z,4.53
2018-09-15T13:42:14.046Z,3.65
2018-09-15T13:44:42.830Z,6.40
2018-09-15T13:47:11.182Z,3.00
2018-09-15T13:49:39.526Z,4.50
2018-09-15T13:52:07.882Z,6.17
2018-09-15T13:54:36.243Z,3.70
2018-09-15T13:57:04.847Z,2.62
2018-09-15T13:59:33.193Z,3.35
2018-09-15T14:02:01.595Z,3.60
2018-09-15T14:04:29.886Z,3.47
2018-09-15T14:06:58.272Z,3.15
2018-09-15T14:09:26.669Z,4.75
2018-09-15T14:11:54.987Z,3.25
2018-09-15T14:14:23.537Z,5.00
2018-09-15T14:16:52.005Z,6.83
2018-09-15T14:19:20.393Z,5.03
2018-09-15T14:21:49.805Z,5.72
2018-09-15T14:24:18.460Z,6.78
2018-09-15T14:26:46.848Z,3.62
2018-09-15T14:29:15.182Z,5.87
2018-09-15T14:31:43.566Z,4.55
2018-09-15T14:34:12.012Z,7.65
2018-09-15T14:36:40.378Z,4.15
2018-09-15T14:39:10.065Z,4.12
2018-09-15T14:41:38.476Z,2.70
2018-09-15T14:44:07.000Z,3.12
2018-09-15T14:46:35.436Z,8.35
2018-09-15T14:49:03.930Z,2.60
2018-09-15T14:51:32.286Z,4.90
2018-09-15T14:54:00.647Z,6.20
2018-09-15T14:56:29.043Z,3.45
2018-09-15T14:58:57.436Z,1.80
2018-09-15T15:01:25.821Z,4.17
2018-09-15T15:03:54.222Z,2.37
2018-09-15T15:06:22.744Z,2.22
2018-09-15T15:08:51.188Z,5.58
2018-09-15T15:11:19.531Z,3.22
2018-09-15T15:13:48.514Z,3.92
2018-09-15T15:16:16.859Z,2.27
2018-09-15T15:18:45.239Z,2.25
2018-09-15T15:21:13.666Z,2.17
2018-09-15T15:23:42.071Z,2.47
2018-09-15T15:26:10.528Z,4.35
2018-09-15T15:28:38.961Z,5.60
2018-09-15T15:31:07.468Z,2.72
2018-09-15T15:33:35.990Z,3.17
2018-09-15T15:36:04.434Z,3.75
2018-09-15T15:38:33.223Z,2.58
2018-09-15T15:41:01.551Z,4.60
2018-09-15T15:43:30.043Z,3.45
2018-09-15T15:45:58.387Z,3.02
2018-09-15T15:48:26.747Z,3.42
2018-09-15T15:50:55.229Z,9.58
2018-09-15T15:53:23.654Z,7.10
2018-09-15T15:55:52.194Z,2.98
2018-09-15T15:58:20.593Z,4.28
2018-09-15T16:00:49.009Z,4.08
2018-09-15T16:03:18.010Z,5.95
2018-09-15T16:05:47.022Z,4.35
2018-09-15T16:08:15.441Z,5.20
2018-09-15T16:10:43.786Z,3.77
2018-09-15T16:13:12.165Z,3.72
2018-09-15T16:15:40.571Z,2.40
2018-09-15T16:18:08.915Z,6.03
2018-09-15T16:20:37.266Z,4.78
2018-09-15T16:23:05.636Z,4.72
2018-09-15T16:25:34.130Z,3.87
2018-09-15T16:28:02.453Z,3.40
2018-09-15T16:30:30.829Z,5.33
2018-09-15T16:32:59.168Z,2.25
2018-09-15T16:35:27.563Z,2.80
2018-09-15T16:37:55.959Z,4.22
2018-09-15T16:40:24.364Z,4.60
2018-09-15T16:42:52.709Z,3.22
2018-09-15T16:45:21.101Z,3.77
2018-09-15T16:47:49.458Z,3.37
2018-09-15T16:50:18.561Z,2.62
2018-09-15T16:52:46.884Z,4.70
2018-09-15T16:55:15.518Z,3.55
2018-09-15T16:57:43.898Z,2.30
2018-09-15T17:00:12.237Z,1.92
2018-09-15T17:02:40.549Z,2.77
2018-09-15T17:05:08.929Z,3.33
2018-09-15T17:07:37.500Z,3.05
2018-09-15T17:10:06.000Z,3.80
2018-09-15T17:12:34.370Z,2.50
2018-09-15T17:15:02.699Z,4.42
2018-09-15T17:17:31.090Z,3.27
2018-09-15T17:19:59.555Z,4.08
2018-09-15T17:22:27.962Z,5.12
2018-09-15T17:24:56.493Z,3.90
2018-09-15T17:27:24.847Z,3.00
2018-09-15T22:40:52.678Z,3.87
2018-09-15T22:43:21.099Z,4.47
2018-09-15T22:45:49.574Z,4.75
2018-09-15T22:48:17.956Z,4.35
2018-09-15T22:50:46.370Z,5.22
2018-09-15T22:53:14.749Z,4.55
2018-09-15T22:55:43.220Z,4.40
2018-09-15T22:58:11.628Z,4.78
2018-09-15T23:00:39.995Z,5.95
2018-09-15T23:03:08.410Z,5.22
2018-09-15T23:05:36.795Z,5.12
2018-09-15T23:08:05.226Z,4.85
2018-09-15T23:10:33.541Z,4.37
2018-09-15T23:13:02.620Z,5.42
2018-09-15T23:15:30.938Z,4.95
2018-09-15T23:17:59.485Z,6.08
2018-09-15T23:20:27.817Z,6.20
2018-09-15T23:22:56.245Z,6.35
2018-09-15T23:25:24.670Z,8.10
2018-09-15T23:27:53.017Z,6.87
2018-09-15T23:30:22.357Z,5.85
2018-09-15T23:32:50.723Z,5.22
2018-09-15T23:35:19.133Z,7.85
2018-09-15T23:37:47.489Z,5.78
2018-09-15T23:40:15.932Z,6.53
2018-09-15T23:42:46.780Z,10.03
2018-09-15T23:45:15.413Z,10.80
2018-09-15T23:47:43.907Z,24.50
2018-09-15T23:50:12.346Z,9.73
2018-09-15T23:52:44.959Z,8.78
2018-09-15T23:55:13.549Z,6.70
2018-09-15T23:57:41.889Z,9.13
